Time;durP1;ratioP1;P1;durP2;ratioP2;P2;SDS_P1;SDS_P2;PMS_P1;PMS_P2;Temp;Humidity;BMP_temperature;BMP_pressure;BME280_temperature;BME280_humidity;BME280_pressure;Samples;Min_cycle;Max_cycle;Signal;HPM_P1;HPM_P2
2021/10/14 00:00:23;;;;;;;11.33;8.70;;;10.30;98.30;;;;;;3946507;30;20514;-85
2021/10/14 00:02:26;;;;;;;14.30;9.17;;;10.40;98.30;;;;;;3946260;30;21056;-85
2021/10/14 00:04:29;;;;;;;14.80;9.67;;;10.40;98.30;;;;;;3946442;30;20519;-86
2021/10/14 00:06:32;;;;;;;10.57;8.57;;;10.50;98.30;;;;;;3946739;30;20487;-85
2021/10/14 00:08:35;;;;;;;11.63;8.60;;;10.50;98.30;;;;;;3953549;30;20574;-85
2021/10/14 00:10:38;;;;;;;10.20;7.57;;;10.60;98.30;;;;;;3946308;30;20576;-85
2021/10/14 00:12:41;;;;;;;12.17;8.03;;;10.60;98.30;;;;;;3946120;30;20566;-85
2021/10/14 00:14:44;;;;;;;13.60;8.40;;;10.60;98.30;;;;;;3946404;30;20487;-85
2021/10/14 00:16:49;;;;;;;12.40;8.00;;;10.50;98.30;;;;;;3946022;30;20998;-85
2021/10/14 00:18:52;;;;;;;12.13;8.20;;;10.60;98.30;;;;;;3946021;30;20612;-85
2021/10/14 00:20:55;;;;;;;13.93;9.63;;;10.60;98.30;;;;;;3945908;30;20481;-85
2021/10/14 00:22:58;;;;;;;12.70;8.97;;;10.70;98.30;;;;;;3945838;30;20590;-84
2021/10/14 00:25:00;;;;;;;15.43;9.17;;;10.60;98.30;;;;;;3946302;30;20968;-84
2021/10/14 00:27:04;;;;;;;13.87;10.17;;;10.70;98.30;;;;;;3946073;30;20976;-84
2021/10/14 00:29:07;;;;;;;14.00;9.40;;;10.60;98.30;;;;;;3948577;30;20528;-85
2021/10/14 00:31:09;;;;;;;13.63;11.40;;;10.60;98.30;;;;;;3950399;30;20501;-85
2021/10/14 00:33:14;;;;;;;14.97;10.37;;;10.60;98.30;;;;;;3945927;30;20483;-85
2021/10/14 00:35:17;;;;;;;17.93;10.80;;;10.70;98.30;;;;;;3946248;30;20488;-84
2021/10/14 00:37:20;;;;;;;16.20;10.00;;;10.70;98.30;;;;;;3945774;30;20586;-84
2021/10/14 00:39:23;;;;;;;16.77;10.00;;;10.80;98.30;;;;;;3946061;30;20510;-84
2021/10/14 00:41:26;;;;;;;19.13;10.60;;;10.70;98.30;;;;;;3945849;30;20852;-85
2021/10/14 00:43:29;;;;;;;17.27;10.90;;;10.70;98.30;;;;;;3946073;30;20875;-84
2021/10/14 00:45:32;;;;;;;17.60;11.90;;;10.80;98.30;;;;;;3946242;30;20478;-84
2021/10/14 00:47:35;;;;;;;19.20;13.83;;;10.80;98.30;;;;;;3945879;30;20574;-84
2021/10/14 00:49:39;;;;;;;17.60;11.60;;;10.80;98.30;;;;;;3945910;30;20514;-85
2021/10/14 00:51:42;;;;;;;16.57;11.07;;;10.80;98.30;;;;;;3945621;30;20486;-85
2021/10/14 00:53:47;;;;;;;19.00;12.50;;;10.80;98.30;;;;;;3945988;30;20844;-85
2021/10/14 00:55:50;;;;;;;19.13;11.73;;;10.80;98.30;;;;;;3938938;30;20855;-86
2021/10/14 00:57:53;;;;;;;22.17;11.80;;;10.80;98.30;;;;;;3945707;30;20571;-85
2021/10/14 00:59:58;;;;;;;16.53;11.53;;;10.90;98.30;;;;;;3945776;30;20521;-85
2021/10/14 01:02:01;;;;;;;18.73;11.97;;;10.80;98.30;;;;;;3945301;30;20475;-84
2021/10/14 01:04:05;;;;;;;19.40;12.10;;;10.90;98.30;;;;;;3945862;30;20564;-84
2021/10/14 01:06:09;;;;;;;23.17;13.33;;;10.90;98.30;;;;;;3945393;30;20487;-85
2021/10/14 01:08:12;;;;;;;21.60;12.27;;;10.90;98.30;;;;;;3945730;30;20490;-85
2021/10/14 01:10:15;;;;;;;18.60;12.43;;;10.90;98.30;;;;;;3945710;30;20513;-85
2021/10/14 01:12:19;;;;;;;20.20;15.00;;;10.90;98.30;;;;;;3945499;30;20956;-85
2021/10/14 01:14:22;;;;;;;21.33;12.13;;;11.00;98.30;;;;;;3945691;30;20961;-85
2021/10/14 01:16:25;;;;;;;18.27;12.50;;;11.00;98.30;;;;;;3945675;30;20844;-85
2021/10/14 01:18:29;;;;;;;21.83;13.67;;;11.00;98.30;;;;;;3945557;30;20491;-84
2021/10/14 01:20:34;;;;;;;24.03;13.00;;;11.00;98.30;;;;;;3945697;30;20498;-86
2021/10/14 01:22:37;;;;;;;22.47;12.47;;;11.00;98.30;;;;;;3945019;30;20479;-84
2021/10/14 01:24:40;;;;;;;18.73;11.50;;;11.00;98.30;;;;;;3945296;30;21031;-85
2021/10/14 01:26:43;;;;;;;17.77;12.43;;;11.00;98.30;;;;;;3945778;30;20534;-86
2021/10/14 01:28:46;;;;;;;19.97;12.33;;;11.00;98.30;;;;;;3945911;30;20507;-84
2021/10/14 01:30:49;;;;;;;19.80;11.30;;;11.00;98.30;;;;;;3945398;29;20946;-85
2021/10/14 01:33:04;;;;;;;17.00;10.77;;;11.10;98.30;;;;;;3952970;30;20915;-85
2021/10/14 01:35:33;;;;;;;18.57;10.60;;;11.10;98.30;;;;;;3946076;30;20471;-85
2021/10/14 01:38:00;;;;;;;15.93;10.03;;;11.10;98.30;;;;;;3945927;30;20470;-86
2021/10/14 01:40:04;;;;;;;17.90;10.40;;;11.10;98.30;;;;;;3945355;30;21075;-84
2021/10/14 01:42:07;;;;;;;15.37;9.40;;;11.20;98.30;;;;;;3945866;30;20550;-86
2021/10/14 01:44:34;;;;;;;14.73;9.70;;;11.20;98.30;;;;;;3945955;30;20568;-85
2021/10/14 01:47:01;;;;;;;14.87;10.03;;;11.20;98.30;;;;;;3958859;29;20471;-84
2021/10/14 01:49:28;;;;;;;18.20;11.13;;;11.20;98.30;;;;;;3970762;29;20498;-85
2021/10/14 01:51:33;;;;;;;17.83;11.83;;;11.30;98.30;;;;;;3963741;29;20494;-85
2021/10/14 01:53:36;;;;;;;19.30;11.30;;;11.30;98.30;;;;;;3955062;30;20959;-86
2021/10/14 01:56:02;;;;;;;18.90;11.57;;;11.30;98.30;;;;;;3941232;30;20840;-86
2021/10/14 01:58:29;;;;;;;16.30;10.50;;;11.30;98.30;;;;;;3945982;30;20692;-85
2021/10/14 02:00:57;;;;;;;19.70;11.90;;;11.40;98.30;;;;;;3946392;30;20478;-85
2021/10/14 02:03:24;;;;;;;18.57;10.97;;;11.30;98.30;;;;;;3947427;30;20634;-85
2021/10/14 02:05:50;;;;;;;20.80;13.40;;;11.40;98.30;;;;;;3941706;30;20889;-85
2021/10/14 02:08:18;;;;;;;21.43;12.00;;;11.40;98.30;;;;;;3960567;30;20502;-84
2021/10/14 02:10:45;;;;;;;18.50;12.30;;;11.40;98.30;;;;;;3963847;29;20475;-84
2021/10/14 02:13:12;;;;;;;18.37;11.47;;;11.40;98.30;;;;;;3959480;30;20469;-84
2021/10/14 02:15:16;;;;;;;24.67;13.83;;;11.40;98.30;;;;;;3963805;29;20506;-84
2021/10/14 02:17:19;;;;;;;21.87;12.47;;;11.40;98.30;;;;;;3963519;29;20467;-85
2021/10/14 02:19:22;;;;;;;23.57;12.83;;;11.40;98.30;;;;;;3946471;30;20541;-85
2021/10/14 02:21:25;;;;;;;18.70;11.60;;;11.50;98.30;;;;;;3945020;30;20483;-85
2021/10/14 02:23:29;;;;;;;19.20;12.47;;;11.50;98.30;;;;;;3945045;30;20475;-85
2021/10/14 02:25:32;;;;;;;22.93;11.47;;;11.50;98.30;;;;;;3944699;30;20499;-85
2021/10/14 02:27:35;;;;;;;20.67;11.07;;;11.50;98.30;;;;;;3943273;30;20987;-85
2021/10/14 02:29:38;;;;;;;20.10;12.23;;;11.50;98.30;;;;;;3944634;30;20495;-86
2021/10/14 02:31:42;;;;;;;30.80;13.10;;;11.50;98.30;;;;;;3943943;30;20475;-85
2021/10/14 02:33:45;;;;;;;20.47;11.07;;;11.60;98.30;;;;;;3952193;30;20486;-86
2021/10/14 02:35:51;;;;;;;23.80;13.77;;;11.60;98.30;;;;;;3937800;30;20482;-85
2021/10/14 02:37:54;;;;;;;23.60;15.37;;;11.50;98.30;;;;;;3944606;30;20467;-86
2021/10/14 02:39:58;;;;;;;21.20;12.07;;;11.50;98.30;;;;;;3944680;30;20945;-85
2021/10/14 02:42:01;;;;;;;23.57;12.37;;;11.60;98.30;;;;;;3944719;30;20566;-85
2021/10/14 02:44:04;;;;;;;20.60;11.50;;;11.60;98.30;;;;;;3947491;30;21110;-85
2021/10/14 02:46:31;;;;;;;19.90;12.40;;;11.60;98.30;;;;;;3947452;30;20501;-85
2021/10/14 02:48:34;;;;;;;20.50;11.70;;;11.60;98.30;;;;;;3947470;30;20495;-85
2021/10/14 02:50:37;;;;;;;18.30;12.20;;;11.50;98.30;;;;;;3947441;30;20487;-86
2021/10/14 02:53:04;;;;;;;21.53;13.27;;;11.60;98.30;;;;;;3942294;30;20517;-85
2021/10/14 02:55:09;;;;;;;20.23;12.60;;;11.60;98.30;;;;;;3947470;30;20471;-86
2021/10/14 02:57:36;;;;;;;35.53;12.60;;;11.60;98.30;;;;;;3947914;30;20564;-85
2021/10/14 02:59:39;;;;;;;26.23;12.50;;;11.60;98.30;;;;;;3947238;30;20592;-85
2021/10/14 03:01:42;;;;;;;20.90;11.60;;;11.60;98.30;;;;;;3946751;30;20475;-86
2021/10/14 03:03:45;;;;;;;22.10;12.70;;;11.60;98.30;;;;;;3954405;30;20487;-85
2021/10/14 03:05:48;;;;;;;23.73;13.63;;;11.60;98.30;;;;;;3947068;30;20502;-86
2021/10/14 03:08:15;;;;;;;35.47;16.37;;;11.60;98.30;;;;;;3943543;30;20493;-86
2021/10/14 03:10:43;;;;;;;24.90;12.37;;;11.60;98.30;;;;;;3946769;30;20466;-86
2021/10/14 03:12:46;;;;;;;43.50;13.53;;;11.60;98.30;;;;;;3947104;30;20912;-85
2021/10/14 03:14:49;;;;;;;77.97;17.23;;;11.70;98.30;;;;;;3954931;30;20586;-86
2021/10/14 03:17:16;;;;;;;44.63;16.07;;;11.70;98.30;;;;;;3943567;30;21036;-85
2021/10/14 03:19:19;;;;;;;45.83;16.63;;;11.70;98.30;;;;;;3947080;30;20495;-86
2021/10/14 03:21:22;;;;;;;124.90;21.03;;;11.70;98.30;;;;;;3946985;30;20487;-85
2021/10/14 03:23:25;;;;;;;48.83;16.57;;;11.70;98.30;;;;;;3947467;30;20851;-85
2021/10/14 03:25:28;;;;;;;54.93;16.37;;;11.70;98.30;;;;;;3946997;30;20498;-85
2021/10/14 03:27:33;;;;;;;40.47;15.50;;;11.70;98.30;;;;;;3947246;30;20820;-85
2021/10/14 03:29:36;;;;;;;62.33;16.13;;;11.70;98.30;;;;;;3946295;30;20935;-83
2021/10/14 03:31:39;;;;;;;58.10;17.23;;;11.70;98.30;;;;;;3945545;30;20475;-85
2021/10/14 03:33:42;;;;;;;33.87;16.00;;;11.70;98.30;;;;;;3946801;30;20479;-86
2021/10/14 03:35:45;;;;;;;21.13;12.00;;;11.70;98.30;;;;;;3946508;30;20477;-85
2021/10/14 03:37:48;;;;;;;25.30;12.77;;;11.80;98.30;;;;;;3947051;30;20979;-86
2021/10/14 03:39:51;;;;;;;27.00;11.73;;;11.80;98.30;;;;;;3946942;30;20506;-86
2021/10/14 03:41:54;;;;;;;20.27;12.00;;;11.80;98.30;;;;;;3946766;30;20964;-85
2021/10/14 03:43:59;;;;;;;20.70;12.00;;;11.80;98.30;;;;;;3946654;30;21040;-86
2021/10/14 03:46:01;;;;;;;19.70;11.07;;;11.80;98.30;;;;;;3946474;30;20491;-86
2021/10/14 03:48:29;;;;;;;22.30;11.97;;;11.80;98.30;;;;;;3932016;30;20984;-86
2021/10/14 03:50:33;;;;;;;19.90;11.90;;;11.90;98.30;;;;;;3932037;30;20578;-85
2021/10/14 03:52:36;;;;;;;19.40;11.30;;;11.90;98.30;;;;;;3931714;30;20576;-86
2021/10/14 03:54:39;;;;;;;22.77;10.77;;;11.80;98.30;;;;;;3932898;30;20479;-87
2021/10/14 03:56:42;;;;;;;17.50;9.10;;;11.90;98.30;;;;;;3946661;30;20511;-86
2021/10/14 03:58:45;;;;;;;18.57;9.87;;;11.90;98.30;;;;;;3946249;30;20506;-86
2021/10/14 04:00:49;;;;;;;14.10;8.63;;;11.90;98.30;;;;;;3946406;30;20477;-86
2021/10/14 04:02:55;;;;;;;14.50;8.70;;;11.90;98.30;;;;;;3946301;30;20823;-85
2021/10/14 04:04:58;;;;;;;12.87;8.90;;;12.00;98.30;;;;;;3946692;30;20499;-84
2021/10/14 04:07:01;;;;;;;13.07;7.40;;;12.00;98.30;;;;;;3946351;30;20874;-85
2021/10/14 04:09:10;;;;;;;11.30;6.80;;;12.00;98.30;;;;;;3939211;30;20517;-86
2021/10/14 04:11:13;;;;;;;10.23;6.63;;;12.00;98.30;;;;;;3946311;30;21023;-86
2021/10/14 04:13:18;;;;;;;12.27;6.50;;;12.00;98.30;;;;;;3947097;30;21064;-85
2021/10/14 04:15:21;;;;;;;10.10;6.70;;;12.00;98.30;;;;;;3946728;30;20483;-86
2021/10/14 04:17:26;;;;;;;10.77;6.20;;;12.00;98.30;;;;;;3946818;30;20491;-86
2021/10/14 04:19:29;;;;;;;8.93;6.27;;;12.00;98.30;;;;;;3946787;30;20601;-84
2021/10/14 04:21:32;;;;;;;9.63;5.80;;;12.00;98.30;;;;;;3946138;30;20479;-85
2021/10/14 04:23:35;;;;;;;11.57;7.10;;;12.00;98.30;;;;;;3946184;30;20514;-85
2021/10/14 04:25:38;;;;;;;14.77;7.13;;;12.10;98.30;;;;;;3946246;30;20598;-85
2021/10/14 04:27:41;;;;;;;12.67;7.43;;;12.10;98.30;;;;;;3946164;30;20518;-86
2021/10/14 04:29:44;;;;;;;11.47;6.70;;;12.10;98.30;;;;;;3946098;30;20938;-85
2021/10/14 04:31:47;;;;;;;11.70;7.60;;;12.10;98.30;;;;;;3946160;30;20505;-84
2021/10/14 04:33:52;;;;;;;11.83;6.90;;;12.10;98.30;;;;;;3946215;30;21063;-85
2021/10/14 04:35:56;;;;;;;11.90;7.03;;;12.10;98.30;;;;;;3946149;30;20487;-84
2021/10/14 04:37:59;;;;;;;13.50;8.20;;;12.20;98.30;;;;;;3946189;30;20483;-85
2021/10/14 04:40:02;;;;;;;14.77;7.73;;;12.20;98.30;;;;;;3945992;30;20502;-85
2021/10/14 04:42:06;;;;;;;16.00;7.80;;;12.20;98.30;;;;;;3945613;30;20519;-84
2021/10/14 04:44:33;;;;;;;16.23;8.57;;;12.20;98.30;;;;;;3931286;30;20472;-85
2021/10/14 04:46:36;;;;;;;15.77;8.97;;;12.20;98.30;;;;;;3941288;30;21063;-85
2021/10/14 04:48:39;;;;;;;15.27;8.93;;;12.20;98.30;;;;;;3945892;30;21238;-85
2021/10/14 04:50:45;;;;;;;14.53;8.07;;;12.20;98.30;;;;;;3946333;30;20847;-86
2021/10/14 04:52:48;;;;;;;16.50;8.20;;;12.30;98.30;;;;;;3945749;30;20470;-85
2021/10/14 04:54:51;;;;;;;14.20;7.43;;;12.30;98.30;;;;;;3946055;30;20926;-84
2021/10/14 04:56:54;;;;;;;12.10;7.13;;;12.30;98.30;;;;;;3945905;30;20563;-84
2021/10/14 04:58:56;;;;;;;13.83;7.53;;;12.30;98.30;;;;;;3945933;30;20503;-83
2021/10/14 05:00:59;;;;;;;11.60;7.60;;;12.30;98.30;;;;;;3945872;30;20475;-84
2021/10/14 05:03:02;;;;;;;10.50;6.77;;;12.30;98.30;;;;;;3945425;29;20499;-83
2021/10/14 05:05:06;;;;;;;10.83;7.10;;;12.40;98.30;;;;;;3945812;30;20509;-84
2021/10/14 05:07:11;;;;;;;10.03;6.10;;;12.30;98.30;;;;;;3945678;30;20507;-84
2021/10/14 05:09:14;;;;;;;9.43;6.30;;;12.40;98.30;;;;;;3945353;30;20506;-83
2021/10/14 05:11:16;;;;;;;12.23;5.97;;;12.40;98.30;;;;;;3945202;30;20485;-84
2021/10/14 05:13:19;;;;;;;8.90;5.53;;;12.40;98.30;;;;;;3945153;30;20490;-83
2021/10/14 05:15:23;;;;;;;8.30;5.47;;;12.40;98.30;;;;;;3945455;30;20478;-84
2021/10/14 05:17:25;;;;;;;9.37;5.90;;;12.30;98.30;;;;;;3945594;30;20475;-84
2021/10/14 05:19:28;;;;;;;8.10;5.30;;;12.40;98.30;;;;;;3945423;30;20499;-85
2021/10/14 05:21:34;;;;;;;7.87;5.40;;;12.30;98.30;;;;;;3945133;30;20493;-84
2021/10/14 05:23:38;;;;;;;6.47;5.07;;;12.40;98.30;;;;;;3945430;30;20857;-84
2021/10/14 05:25:41;;;;;;;9.77;5.57;;;12.40;98.30;;;;;;3945241;30;20522;-84
2021/10/14 05:27:44;;;;;;;9.33;6.33;;;12.40;98.30;;;;;;3945173;30;20479;-84
2021/10/14 05:29:47;;;;;;;8.30;5.50;;;12.40;98.30;;;;;;3945734;30;20510;-84
2021/10/14 05:31:50;;;;;;;9.20;5.63;;;12.40;98.30;;;;;;3945301;30;20479;-84
2021/10/14 05:33:54;;;;;;;7.47;5.37;;;12.50;98.30;;;;;;3945461;30;20479;-84
2021/10/14 05:35:58;;;;;;;6.20;4.67;;;12.50;98.30;;;;;;3946069;30;20820;-84
2021/10/14 05:38:01;;;;;;;6.80;5.50;;;12.50;98.30;;;;;;3945552;30;20486;-84
2021/10/14 05:40:07;;;;;;;11.10;5.13;;;12.50;98.30;;;;;;3940624;30;20565;-84
2021/10/14 05:42:10;;;;;;;7.50;5.03;;;12.50;98.30;;;;;;3945181;30;20483;-83
2021/10/14 05:44:13;;;;;;;7.60;4.63;;;12.50;98.30;;;;;;3945435;30;20491;-83
2021/10/14 05:46:16;;;;;;;5.87;4.60;;;12.50;98.30;;;;;;3948955;30;20501;-83
2021/10/14 05:48:19;;;;;;;7.43;5.10;;;12.50;98.30;;;;;;3948658;30;20965;-84
2021/10/14 05:50:22;;;;;;;5.83;5.33;;;12.50;98.30;;;;;;3945345;30;20515;-85
2021/10/14 05:52:25;;;;;;;7.80;4.63;;;12.50;98.30;;;;;;3944986;30;20485;-84
2021/10/14 05:54:28;;;;;;;7.00;5.17;;;12.50;98.30;;;;;;3945346;30;20487;-84
2021/10/14 05:56:32;;;;;;;7.80;4.27;;;12.60;98.30;;;;;;3950969;30;20978;-84
2021/10/14 05:58:35;;;;;;;7.27;4.50;;;12.60;98.30;;;;;;3954143;30;20487;-83
2021/10/14 06:00:38;;;;;;;6.53;4.10;;;12.60;98.30;;;;;;3945354;30;20490;-83
2021/10/14 06:02:41;;;;;;;6.43;4.57;;;12.60;98.30;;;;;;3945132;30;20492;-84
2021/10/14 06:04:44;;;;;;;7.30;4.50;;;12.70;98.30;;;;;;3952387;30;20479;-85
2021/10/14 06:06:47;;;;;;;7.20;5.30;;;12.60;98.30;;;;;;3937852;30;20506;-84
2021/10/14 06:08:50;;;;;;;8.70;4.80;;;12.60;98.30;;;;;;3945136;30;20511;-84
2021/10/14 06:10:53;;;;;;;7.67;4.93;;;12.60;98.30;;;;;;3944870;30;20491;-84
2021/10/14 06:12:57;;;;;;;8.00;5.00;;;12.70;98.30;;;;;;3944788;30;20569;-84
2021/10/14 06:15:00;;;;;;;6.70;5.50;;;12.70;98.30;;;;;;3945172;30;20490;-84
2021/10/14 06:17:03;;;;;;;12.73;7.83;;;12.70;98.30;;;;;;3945067;30;21011;-84
2021/10/14 06:19:06;;;;;;;9.60;5.23;;;12.70;98.30;;;;;;3948104;30;20503;-83
2021/10/14 06:21:09;;;;;;;8.43;5.10;;;12.70;98.30;;;;;;3947873;30;21233;-84
2021/10/14 06:23:13;;;;;;;11.10;6.33;;;12.80;98.30;;;;;;3948331;30;20513;-84
2021/10/14 06:25:16;;;;;;;10.53;5.83;;;12.70;98.30;;;;;;3947873;30;20533;-84
2021/10/14 06:27:19;;;;;;;10.63;6.63;;;12.80;98.30;;;;;;3947851;30;20498;-83
2021/10/14 06:29:26;;;;;;;13.47;6.73;;;12.70;98.30;;;;;;3948075;30;20510;-84
2021/10/14 06:31:29;;;;;;;11.70;7.00;;;12.70;98.30;;;;;;3948144;30;20494;-83
2021/10/14 06:33:32;;;;;;;12.80;7.10;;;12.70;98.30;;;;;;3955622;30;20490;-83
2021/10/14 06:35:35;;;;;;;11.60;7.00;;;12.70;98.30;;;;;;3947902;30;20479;-83
2021/10/14 06:37:38;;;;;;;12.37;7.43;;;12.70;98.30;;;;;;3948272;30;20475;-83
2021/10/14 06:39:41;;;;;;;13.20;7.67;;;12.70;98.30;;;;;;3947545;30;20593;-83
2021/10/14 06:41:44;;;;;;;15.07;8.00;;;12.70;98.30;;;;;;3947545;30;20475;-83
2021/10/14 06:43:47;;;;;;;14.50;8.17;;;12.70;98.30;;;;;;3940102;30;20518;-84
2021/10/14 06:45:52;;;;;;;16.63;8.77;;;12.80;98.30;;;;;;3947754;30;20475;-84
2021/10/14 06:47:55;;;;;;;18.43;8.80;;;12.70;98.30;;;;;;3947599;30;20509;-84
2021/10/14 06:50:00;;;;;;;16.93;9.10;;;12.70;98.30;;;;;;3947639;30;20515;-83
2021/10/14 06:52:03;;;;;;;17.47;9.93;;;12.80;98.30;;;;;;3947199;30;20555;-83
2021/10/14 06:54:06;;;;;;;19.23;10.07;;;12.70;98.30;;;;;;3947388;30;20487;-84
2021/10/14 06:56:09;;;;;;;15.23;7.60;;;12.80;98.30;;;;;;3947779;30;20486;-84
2021/10/14 06:58:12;;;;;;;22.20;10.90;;;12.80;98.30;;;;;;3947328;30;20482;-83
2021/10/14 07:00:19;;;;;;;15.80;9.10;;;12.70;98.30;;;;;;3947513;30;20598;-84
2021/10/14 07:02:23;;;;;;;12.43;7.00;;;12.70;98.30;;;;;;3947193;30;20482;-84
2021/10/14 07:04:26;;;;;;;17.70;8.03;;;12.70;98.30;;;;;;3947383;30;20487;-83
2021/10/14 07:06:29;;;;;;;14.13;8.07;;;12.80;98.30;;;;;;3947601;30;20487;-83
2021/10/14 07:08:32;;;;;;;15.70;8.73;;;12.80;98.30;;;;;;3947049;30;20490;-83
2021/10/14 07:10:35;;;;;;;14.70;7.13;;;12.80;98.30;;;;;;3947305;30;20479;-83
2021/10/14 07:12:40;;;;;;;15.00;8.37;;;12.80;98.30;;;;;;3947090;30;20481;-84
2021/10/14 07:14:44;;;;;;;15.90;8.00;;;12.80;98.30;;;;;;3947367;30;20487;-83
2021/10/14 07:16:47;;;;;;;17.13;7.50;;;12.80;98.30;;;;;;3940052;30;20496;-83
2021/10/14 07:18:52;;;;;;;16.73;7.90;;;12.80;98.30;;;;;;3947313;30;20505;-84
2021/10/14 07:20:55;;;;;;;12.40;7.40;;;12.80;98.30;;;;;;3947575;30;20995;-84
2021/10/14 07:22:58;;;;;;;10.53;6.83;;;12.80;98.30;;;;;;3948253;30;20602;-84
2021/10/14 07:25:01;;;;;;;18.70;7.80;;;12.80;98.30;;;;;;3956732;30;20479;-83
2021/10/14 07:27:04;;;;;;;21.73;11.83;;;12.80;98.30;;;;;;3949280;30;20513;-83
2021/10/14 07:29:06;;;;;;;10.97;7.70;;;12.80;98.30;;;;;;3950857;30;20514;-83
2021/10/14 07:31:09;;;;;;;13.60;7.43;;;12.80;98.30;;;;;;3947584;30;20486;-84
2021/10/14 07:33:13;;;;;;;18.00;8.10;;;12.80;98.30;;;;;;3947285;30;20495;-84
2021/10/14 07:35:20;;;;;;;15.60;7.90;;;12.80;98.30;;;;;;3947217;30;20487;-84
2021/10/14 07:37:23;;;;;;;11.10;7.37;;;12.90;98.30;;;;;;3947120;30;20513;-84
2021/10/14 07:39:26;;;;;;;17.63;7.50;;;12.90;98.30;;;;;;3947117;30;20499;-84
2021/10/14 07:41:29;;;;;;;14.90;6.57;;;12.90;98.30;;;;;;3946874;30;20487;-84
2021/10/14 07:43:32;;;;;;;12.10;7.10;;;12.90;98.30;;;;;;3947395;30;20483;-84
2021/10/14 07:45:35;;;;;;;11.73;7.70;;;12.90;98.30;;;;;;3947434;30;20540;-84
2021/10/14 07:47:39;;;;;;;10.80;6.90;;;12.90;98.30;;;;;;3946915;30;20671;-84
2021/10/14 07:49:42;;;;;;;15.67;7.00;;;12.90;98.30;;;;;;3946899;30;20502;-84
2021/10/14 07:51:47;;;;;;;26.80;9.97;;;12.90;98.30;;;;;;3946639;30;20486;-84
2021/10/14 07:53:50;;;;;;;20.90;11.10;;;12.90;98.30;;;;;;3946839;30;20479;-83
2021/10/14 07:55:53;;;;;;;18.63;11.27;;;13.00;98.30;;;;;;3946888;30;20494;-84
2021/10/14 07:57:56;;;;;;;21.80;10.40;;;13.00;98.30;;;;;;3946736;30;20479;-83
2021/10/14 07:59:59;;;;;;;24.43;15.10;;;13.10;98.30;;;;;;3946576;30;20598;-83
2021/10/14 08:02:02;;;;;;;15.63;8.53;;;13.10;98.30;;;;;;3946608;30;20498;-84
2021/10/14 08:04:05;;;;;;;17.77;7.90;;;13.00;98.30;;;;;;3946899;30;20483;-83
2021/10/14 08:06:08;;;;;;;15.27;7.27;;;13.10;98.30;;;;;;3946634;30;20573;-84
2021/10/14 08:08:13;;;;;;;17.33;10.53;;;13.10;98.30;;;;;;3946686;30;20877;-83
2021/10/14 08:10:17;;;;;;;13.80;8.07;;;13.10;98.30;;;;;;3946600;30;20591;-84
2021/10/14 08:12:20;;;;;;;12.57;7.50;;;13.10;98.30;;;;;;3946195;30;20483;-84
2021/10/14 08:14:23;;;;;;;15.00;8.80;;;13.10;98.30;;;;;;3946884;30;20896;-84
2021/10/14 08:16:26;;;;;;;13.63;8.77;;;13.10;98.30;;;;;;3946518;30;20514;-83
2021/10/14 08:18:29;;;;;;;13.90;8.50;;;13.10;98.30;;;;;;3946734;30;20507;-84
2021/10/14 08:20:33;;;;;;;15.50;9.90;;;13.10;98.30;;;;;;3946958;30;21007;-84
2021/10/14 08:22:36;;;;;;;17.23;8.83;;;13.10;98.30;;;;;;3947024;30;20479;-84
2021/10/14 08:24:41;;;;;;;17.60;9.90;;;13.10;98.30;;;;;;3946558;30;20475;-83
2021/10/14 08:26:44;;;;;;;15.70;9.37;;;13.00;98.30;;;;;;3954149;30;20517;-84
2021/10/14 08:28:47;;;;;;;15.87;8.80;;;13.00;98.30;;;;;;3946063;30;20514;-84
2021/10/14 08:30:50;;;;;;;22.20;8.73;;;13.10;98.30;;;;;;3946747;30;20574;-84
2021/10/14 08:32:54;;;;;;;12.80;8.33;;;13.00;98.30;;;;;;3946491;30;20494;-84
2021/10/14 08:34:57;;;;;;;12.17;9.20;;;13.10;98.30;;;;;;3946764;30;20570;-84
2021/10/14 08:37:01;;;;;;;34.73;11.93;;;13.10;98.30;;;;;;3953248;30;20491;-84
2021/10/14 08:39:04;;;;;;;16.97;9.07;;;13.00;98.30;;;;;;3960792;30;20487;-84
2021/10/14 08:41:09;;;;;;;19.53;9.00;;;13.10;98.30;;;;;;3967807;29;20539;-84
2021/10/14 08:43:14;;;;;;;14.93;9.70;;;13.20;98.30;;;;;;3960528;30;20483;-84
2021/10/14 08:45:17;;;;;;;11.10;7.57;;;13.20;98.30;;;;;;3950764;30;20477;-84
2021/10/14 08:47:20;;;;;;;12.13;8.30;;;13.30;98.30;;;;;;3947489;30;20475;-84
2021/10/14 08:49:24;;;;;;;9.97;8.03;;;13.30;98.30;;;;;;3951405;30;20509;-84
2021/10/14 08:51:28;;;;;;;15.57;8.80;;;13.40;98.30;;;;;;3949326;30;20571;-85
2021/10/14 08:53:31;;;;;;;15.20;9.10;;;13.50;98.30;;;;;;3947517;30;20483;-84
2021/10/14 08:55:37;;;;;;;14.17;8.73;;;13.50;98.30;;;;;;3948814;30;20980;-85
2021/10/14 08:57:42;;;;;;;13.30;8.53;;;13.50;98.30;;;;;;3948902;30;20973;-83
2021/10/14 08:59:45;;;;;;;13.80;11.30;;;13.50;98.30;;;;;;3960544;30;20575;-84
2021/10/14 09:02:14;;;;;;;16.07;9.17;;;13.50;98.30;;;;;;3960906;30;20479;-85
2021/10/14 09:04:20;;;;;;;13.30;8.90;;;13.50;98.30;;;;;;3960889;30;20487;-84
2021/10/14 09:06:23;;;;;;;15.60;8.57;;;13.60;98.30;;;;;;3967543;30;20463;-85
2021/10/14 09:08:36;;;;;;;12.63;8.33;;;13.60;98.30;;;;;;3960149;30;20530;-84
2021/10/14 09:10:39;;;;;;;13.77;8.77;;;13.60;98.30;;;;;;3947029;30;20478;-84
2021/10/14 09:12:46;;;;;;;10.50;6.57;;;13.50;98.30;;;;;;3946066;30;20475;-83
2021/10/14 09:14:55;;;;;;;10.30;7.37;;;13.40;98.30;;;;;;3932316;30;20489;-84
2021/10/14 09:16:58;;;;;;;10.77;7.90;;;13.30;98.30;;;;;;3951557;30;20511;-84
2021/10/14 09:19:13;;;;;;;8.77;7.87;;;13.30;98.30;;;;;;3946137;30;20502;-83
2021/10/14 09:21:28;;;;;;;15.77;8.50;;;13.30;98.30;;;;;;3949303;30;20477;-83
2021/10/14 09:23:31;;;;;;;16.57;9.70;;;13.30;98.30;;;;;;3947637;30;20552;-84
2021/10/14 09:25:36;;;;;;;12.90;8.97;;;13.30;98.30;;;;;;3945555;30;20483;-83
2021/10/14 09:27:44;;;;;;;11.10;8.93;;;13.30;98.30;;;;;;3946283;30;20999;-83
2021/10/14 09:29:47;;;;;;;16.07;10.00;;;13.30;98.30;;;;;;3940078;30;20513;-83
2021/10/14 09:31:53;;;;;;;19.10;9.27;;;13.20;98.30;;;;;;3946474;30;20486;-84
2021/10/14 09:33:56;;;;;;;10.27;8.37;;;13.20;98.30;;;;;;3946098;30;20575;-84
2021/10/14 09:36:12;;;;;;;15.73;8.83;;;13.20;98.30;;;;;;3945653;30;20503;-84
2021/10/14 09:38:31;;;;;;;12.80;8.40;;;13.20;98.30;;;;;;3945542;30;20482;-84
2021/10/14 09:40:34;;;;;;;13.00;8.50;;;13.20;98.30;;;;;;3945620;30;20503;-84
2021/10/14 09:42:52;;;;;;;14.37;8.67;;;13.10;98.30;;;;;;3945415;30;20834;-84
2021/10/14 09:44:55;;;;;;;18.87;12.40;;;13.20;98.30;;;;;;3945408;30;20490;-83
2021/10/14 09:46:58;;;;;;;16.80;9.93;;;13.20;98.30;;;;;;3945415;30;20562;-83
2021/10/14 09:49:01;;;;;;;12.10;9.20;;;13.30;98.30;;;;;;3944967;30;20506;-84
2021/10/14 09:51:04;;;;;;;10.10;7.73;;;13.30;98.30;;;;;;3954951;30;20474;-83
2021/10/14 09:53:10;;;;;;;16.17;8.60;;;13.30;98.30;;;;;;3949992;30;20495;-84
2021/10/14 09:55:14;;;;;;;8.63;7.47;;;13.30;98.30;;;;;;3945290;30;20489;-83
2021/10/14 09:57:17;;;;;;;10.80;6.67;;;13.40;98.30;;;;;;3945317;30;20487;-83
2021/10/14 09:59:21;;;;;;;9.10;7.47;;;13.40;98.30;;;;;;3949581;30;21019;-83
2021/10/14 10:01:25;;;;;;;9.33;8.40;;;13.30;98.30;;;;;;3947698;30;20491;-83
2021/10/14 10:03:28;;;;;;;10.50;7.70;;;13.30;98.30;;;;;;3945149;30;20509;-83
2021/10/14 10:05:32;;;;;;;13.90;7.70;;;13.30;98.30;;;;;;3945256;30;20482;-84
2021/10/14 10:07:37;;;;;;;8.93;6.43;;;13.20;98.30;;;;;;3945372;30;20490;-84
2021/10/14 10:09:43;;;;;;;11.40;7.47;;;13.20;98.30;;;;;;3945230;30;20602;-83
2021/10/14 10:11:48;;;;;;;12.73;8.20;;;13.20;98.30;;;;;;3945300;30;20483;-83
2021/10/14 10:13:53;;;;;;;8.97;7.27;;;13.20;98.30;;;;;;3938136;30;20975;-84
2021/10/14 10:16:17;;;;;;;8.20;6.10;;;13.30;98.30;;;;;;3945168;30;20470;-84
2021/10/14 10:18:40;;;;;;;9.63;6.37;;;13.30;98.30;;;;;;3945250;30;20581;-83
2021/10/14 10:20:43;;;;;;;7.17;6.13;;;13.30;98.30;;;;;;3945229;30;20486;-84
2021/10/14 10:22:51;;;;;;;7.20;6.17;;;13.40;98.30;;;;;;3944852;30;20479;-84
2021/10/14 10:24:54;;;;;;;8.83;5.90;;;13.50;98.30;;;;;;3944758;30;20570;-84
2021/10/14 10:27:04;;;;;;;7.67;4.90;;;13.50;98.30;;;;;;3944924;30;20854;-84
2021/10/14 10:29:45;;;;;;;4.83;4.00;;;13.70;98.30;;;;;;3944927;30;20503;-83
2021/10/14 10:32:17;;;;;;;4.57;4.17;;;13.80;98.30;;;;;;3935151;30;21076;-84
2021/10/14 10:34:54;;;;;;;6.83;4.60;;;13.80;98.30;;;;;;3945183;30;20482;-83
2021/10/14 10:36:57;;;;;;;4.87;4.30;;;13.80;98.30;;;;;;3945288;30;20502;-83
2021/10/14 10:39:00;;;;;;;5.93;3.70;;;13.80;98.30;;;;;;3949405;30;20605;-83
2021/10/14 10:41:05;;;;;;;6.90;5.57;;;13.70;98.30;;;;;;3950782;30;20952;-84
2021/10/14 10:43:12;;;;;;;5.00;4.40;;;13.60;98.30;;;;;;3950210;30;20487;-84
2021/10/14 10:45:18;;;;;;;5.00;3.50;;;13.60;98.30;;;;;;3952406;30;20489;-84